Terminal Aerodrome Forecast
Issued by NWS

Home | Current Version | Previous Version | Text Only | Print | Product List | Glossary Off
Versions: 1 2 3 4 5 6 7 8 9 10 11 12 13 14 15 16 17 18 19 20 21

405
FTUS43 KMPX 171131
TAFRNH
TAF
KRNH 171131Z 1712/1812 11008KT 6SM -RA BR SCT025 BKN040
     FM171300 05008KT 5SM -RA BR SCT008 BKN015
     FM171500 36011KT 4SM -RA BR OVC008
     FM172200 31014G21KT P6SM OVC015
     FM180200 32010KT P6SM SCT040
     FM180400 31008KT P6SM SCT150=

USA.gov is the U.S. government's official web portal to all federal, state and local government web resources and services.